IBE0690 LIRQ-LEMD
Flight info
| Callsign | IBE0690 |
|---|---|
| Flight time | N/A |
| Altitude | 37000 |
| Route | BIBNO DCT BEROK DCT ENOBA DCT GEKBA DCT VAMTU DCT KOLON DCT GANGU DCT PADKO DCT DIVKO DCT NILDU DCT NENDA DCT BCN DCT ANTON DCT XIKEN DCT OSLAP DCT SALAS DCT RAMON DCT NEXAS DCT DISVU DCT ADUXO |
| Aircraft | A319/M-SDE3FGHIRWY/LB1 |
Departure
| Time | 2026-04-23 19:21 |
|---|---|
| Airport | Florence Airport, Peretola (LIRQ) |
Arrival
| Time | N/A |
|---|---|
| Airport | Adolfo Suárez Madrid–Barajas Airport (LEMD) |
| Time | Latitude | Longitude | Altitude | Speed | Heading |
|---|---|---|---|---|---|
| 2026-04-23 19:05 | 43.80296 | 11.20032 | 122 ft | 0 kts | 159° |
| 2026-04-23 19:10 | 43.80297 | 11.20032 | 126 ft | 0 kts | 159° |
| 2026-04-23 19:14 | 43.80310 | 11.20025 | 122 ft | 3 kts | 167° |
| 2026-04-23 19:14 | 43.80330 | 11.20021 | 126 ft | 3 kts | 182° |
| 2026-04-23 19:14 | 43.80350 | 11.20024 | 128 ft | 3 kts | 192° |
| 2026-04-23 19:15 | 43.80369 | 11.20030 | 128 ft | 2 kts | 191° |
| 2026-04-23 19:15 | 43.80375 | 11.20032 | 127 ft | 0 kts | 189° |
| 2026-04-23 19:17 | 43.80363 | 11.20017 | 128 ft | 7 kts | 230° |
| 2026-04-23 19:17 | 43.80372 | 11.19944 | 129 ft | 8 kts | 315° |
| 2026-04-23 19:17 | 43.80439 | 11.19952 | 132 ft | 12 kts | 18° |
| 2026-04-23 19:18 | 43.80519 | 11.19980 | 133 ft | 12 kts | 14° |
| 2026-04-23 19:18 | 43.80614 | 11.20012 | 132 ft | 17 kts | 14° |
| 2026-04-23 19:18 | 43.80730 | 11.20089 | 133 ft | 19 kts | 44° |
| 2026-04-23 19:18 | 43.80832 | 11.20243 | 129 ft | 28 kts | 48° |
| 2026-04-23 19:19 | 43.81134 | 11.20704 | 129 ft | 32 kts | 50° |
| 2026-04-23 19:19 | 43.81257 | 11.20912 | 133 ft | 20 kts | 66° |
| 2026-04-23 19:20 | 43.81287 | 11.21264 | 144 ft | 19 kts | 50° |
| 2026-04-23 19:20 | 43.81384 | 11.21381 | 144 ft | 18 kts | 8° |
| 2026-04-23 19:20 | 43.81508 | 11.21326 | 136 ft | 17 kts | 314° |
| 2026-04-23 19:20 | 43.81489 | 11.21259 | 132 ft | 0 kts | 231° |
| 2026-04-23 19:21 | 43.81476 | 11.21238 | 132 ft | 24 kts | 231° |
| 2026-04-23 19:21 | 43.80488 | 11.19700 | 302 ft | 162 kts | 228° |
| 2026-04-23 19:21 | 43.79864 | 11.18416 | 1037 ft | 164 kts | 255° |
| 2026-04-23 19:22 | 43.79934 | 11.16837 | 1640 ft | 175 kts | 291° |
| 2026-04-23 19:22 | 43.80489 | 11.15242 | 2038 ft | 194 kts | 289° |
| 2026-04-23 19:22 | 43.80818 | 11.11214 | 3145 ft | 221 kts | 274° |
| 2026-04-23 19:23 | 43.80923 | 11.09066 | 3949 ft | 226 kts | 275° |
| 2026-04-23 19:23 | 43.81035 | 11.06867 | 4720 ft | 232 kts | 275° |
| 2026-04-23 19:23 | 43.81158 | 11.04610 | 5470 ft | 238 kts | 276° |